Time;durP1;ratioP1;P1;durP2;ratioP2;P2;SDS_P1;SDS_P2;PMS_P1;PMS_P2;Temp;Humidity;BMP_temperature;BMP_pressure;BME280_temperature;BME280_humidity;BME280_pressure;Samples;Min_cycle;Max_cycle;Signal;HPM_P1;HPM_P2
2023/07/03 00:00:37;;;;;;;7.37;3.00;;;;;;;;;;4985808;28;20465;-79
2023/07/03 00:03:06;;;;;;;6.93;2.87;;;;;;;;;;4989856;28;20492;-80
2023/07/03 00:05:35;;;;;;;7.10;3.13;;;;;;;;;;4985104;28;20453;-79
2023/07/03 00:08:02;;;;;;;7.03;3.57;;;;;;;;;;4987301;28;20501;-79
2023/07/03 00:10:30;;;;;;;7.60;3.73;;;;;;;;;;4988419;28;20576;-78
2023/07/03 00:12:57;;;;;;;6.73;3.10;;;;;;;;;;4985965;28;20477;-79
2023/07/03 00:15:25;;;;;;;10.10;3.60;;;;;;;;;;4991018;28;20461;-80
2023/07/03 00:17:53;;;;;;;9.03;3.80;;;;;;;;;;4990922;28;20476;-78
2023/07/03 00:20:22;;;;;;;8.73;3.17;;;;;;;;;;4988994;28;20520;-79
2023/07/03 00:22:51;;;;;;;8.47;3.20;;;;;;;;;;4989824;28;20546;-78
2023/07/03 00:25:19;;;;;;;7.47;3.20;;;;;;;;;;4991544;28;20469;-79
2023/07/03 00:27:49;;;;;;;9.27;3.90;;;;;;;;;;4987532;28;20528;-80
2023/07/03 00:30:18;;;;;;;9.63;3.00;;;;;;;;;;4987984;28;20448;-80
2023/07/03 00:32:45;;;;;;;9.13;3.53;;;;;;;;;;4988522;28;20945;-81
2023/07/03 00:35:13;;;;;;;6.50;3.60;;;;;;;;;;4988303;28;20507;-79
2023/07/03 00:37:42;;;;;;;8.97;2.70;;;;;;;;;;4987528;28;20488;-78
2023/07/03 00:40:10;;;;;;;7.73;3.70;;;;;;;;;;4969181;28;20489;-78
2023/07/03 00:42:38;;;;;;;7.30;3.10;;;;;;;;;;4969493;29;20513;-79
2023/07/03 00:45:07;;;;;;;7.27;2.80;;;;;;;;;;4967083;29;20477;-79
2023/07/03 00:47:35;;;;;;;9.03;2.80;;;;;;;;;;4963451;29;20466;-79
2023/07/03 00:50:06;;;;;;;8.20;3.13;;;;;;;;;;4962688;29;20461;-80
2023/07/03 00:52:34;;;;;;;9.33;3.87;;;;;;;;;;4968834;29;20605;-79
2023/07/03 00:55:03;;;;;;;9.73;3.93;;;;;;;;;;4969530;29;20469;-79
2023/07/03 00:57:32;;;;;;;10.30;4.87;;;;;;;;;;4966040;29;20454;-80
2023/07/03 01:00:00;;;;;;;7.30;3.30;;;;;;;;;;4965849;29;20517;-79
2023/07/03 01:02:30;;;;;;;7.23;2.97;;;;;;;;;;4971378;29;20490;-80
2023/07/03 01:05:02;;;;;;;8.50;3.03;;;;;;;;;;4971684;29;20462;-79
2023/07/03 01:07:31;;;;;;;9.60;3.50;;;;;;;;;;4970005;29;20529;-80
2023/07/03 01:10:01;;;;;;;8.47;3.43;;;;;;;;;;4971788;29;20457;-80
2023/07/03 01:12:32;;;;;;;6.80;3.50;;;;;;;;;;4967196;29;20450;-79
2023/07/03 01:15:01;;;;;;;6.97;3.10;;;;;;;;;;4967345;29;20460;-79
2023/07/03 01:17:30;;;;;;;8.17;2.83;;;;;;;;;;4969199;29;20461;-79
2023/07/03 01:19:58;;;;;;;10.80;3.00;;;;;;;;;;4971763;29;20446;-78
2023/07/03 01:22:27;;;;;;;6.73;3.77;;;;;;;;;;4964296;29;20509;-79
2023/07/03 01:24:58;;;;;;;7.60;3.10;;;;;;;;;;4970596;29;20817;-79
2023/07/03 01:27:27;;;;;;;6.37;3.10;;;;;;;;;;4969769;29;20517;-79
2023/07/03 01:29:55;;;;;;;7.63;3.23;;;;;;;;;;4970013;29;20450;-79
2023/07/03 01:32:24;;;;;;;12.03;3.70;;;;;;;;;;4970056;29;20489;-79
2023/07/03 01:34:53;;;;;;;9.53;3.70;;;;;;;;;;4968457;29;20865;-80
2023/07/03 01:37:22;;;;;;;9.60;3.00;;;;;;;;;;4966364;29;20450;-79
2023/07/03 01:39:51;;;;;;;6.57;3.10;;;;;;;;;;4984376;28;20453;-79
2023/07/03 01:42:20;;;;;;;8.30;3.30;;;;;;;;;;4987952;28;20520;-78
2023/07/03 01:44:47;;;;;;;7.93;3.53;;;;;;;;;;4985458;28;20524;-81
2023/07/03 01:47:15;;;;;;;8.80;3.43;;;;;;;;;;4991166;28;20500;-79
2023/07/03 01:49:43;;;;;;;8.00;3.10;;;;;;;;;;4987080;28;20516;-78
2023/07/03 01:52:14;;;;;;;8.77;2.57;;;;;;;;;;4985852;28;20453;-79
2023/07/03 01:54:43;;;;;;;9.47;3.53;;;;;;;;;;4989494;28;20916;-81
2023/07/03 01:57:13;;;;;;;7.20;3.10;;;;;;;;;;4989073;28;20471;-80
2023/07/03 01:59:45;;;;;;;10.07;3.63;;;;;;;;;;4985928;28;20574;-78
2023/07/03 02:02:15;;;;;;;5.73;2.90;;;;;;;;;;4989327;28;20493;-78
2023/07/03 02:04:43;;;;;;;6.20;2.73;;;;;;;;;;4988394;28;20457;-77
2023/07/03 02:07:12;;;;;;;7.83;2.83;;;;;;;;;;4986165;28;20455;-80
2023/07/03 02:09:40;;;;;;;8.97;4.17;;;;;;;;;;4987106;28;20515;-79
2023/07/03 02:12:09;;;;;;;8.47;3.33;;;;;;;;;;4988417;28;20555;-80
2023/07/03 02:14:38;;;;;;;317.37;42.33;;;;;;;;;;4986715;28;20492;-81
2023/07/03 02:17:07;;;;;;;7.70;2.90;;;;;;;;;;4984789;28;20461;-79
2023/07/03 02:19:35;;;;;;;6.63;3.10;;;;;;;;;;4987420;28;20471;-79
2023/07/03 02:22:03;;;;;;;5.10;2.57;;;;;;;;;;4984540;28;20579;-78
2023/07/03 02:24:30;;;;;;;7.20;3.10;;;;;;;;;;4984179;28;20537;-79
2023/07/03 02:26:57;;;;;;;12.07;3.70;;;;;;;;;;4985066;28;20495;-79
2023/07/03 02:29:25;;;;;;;5.30;3.27;;;;;;;;;;4982443;28;20784;-78
2023/07/03 02:31:52;;;;;;;11.23;4.20;;;;;;;;;;4983118;28;20457;-79
2023/07/03 02:34:22;;;;;;;8.40;3.50;;;;;;;;;;4983347;28;20472;-80
2023/07/03 02:36:58;;;;;;;10.03;3.30;;;;;;;;;;4986951;28;20468;-80
2023/07/03 02:39:28;;;;;;;9.90;3.67;;;;;;;;;;4973720;28;20518;-79
2023/07/03 02:41:56;;;;;;;11.03;4.27;;;;;;;;;;4966187;28;20462;-78
2023/07/03 02:44:24;;;;;;;10.93;3.77;;;;;;;;;;4968281;29;20746;-79
2023/07/03 02:46:54;;;;;;;8.33;3.80;;;;;;;;;;4967118;29;20454;-79
2023/07/03 02:49:23;;;;;;;7.70;2.70;;;;;;;;;;4968688;28;20911;-80
2023/07/03 02:51:51;;;;;;;11.30;3.33;;;;;;;;;;4968062;28;20446;-79
2023/07/03 02:54:18;;;;;;;8.57;2.87;;;;;;;;;;4971228;29;20477;-79
2023/07/03 02:56:46;;;;;;;6.20;3.03;;;;;;;;;;4968099;29;20817;-79
2023/07/03 02:59:15;;;;;;;7.17;3.20;;;;;;;;;;4970623;28;20481;-80
2023/07/03 03:01:45;;;;;;;8.13;3.27;;;;;;;;;;4970144;29;20458;-78
2023/07/03 03:04:16;;;;;;;10.33;3.80;;;;;;;;;;4969241;29;20525;-81
2023/07/03 03:06:45;;;;;;;8.50;3.50;;;;;;;;;;4965401;29;20454;-79
2023/07/03 03:09:12;;;;;;;9.83;3.60;;;;;;;;;;4970446;29;20460;-79
2023/07/03 03:11:40;;;;;;;9.43;3.63;;;;;;;;;;4968745;29;20466;-79
2023/07/03 03:14:07;;;;;;;11.50;4.20;;;;;;;;;;4966340;29;20480;-78
2023/07/03 03:16:35;;;;;;;7.20;3.10;;;;;;;;;;4969155;29;20533;-78
2023/07/03 03:19:03;;;;;;;11.03;3.70;;;;;;;;;;4971244;29;20472;-79
2023/07/03 03:21:30;;;;;;;8.43;4.70;;;;;;;;;;4967494;29;20450;-79
2023/07/03 03:23:59;;;;;;;6.47;3.17;;;;;;;;;;4967722;29;20496;-79
2023/07/03 03:26:29;;;;;;;10.17;3.30;;;;;;;;;;4970552;29;20466;-79
2023/07/03 03:28:57;;;;;;;12.30;3.73;;;;;;;;;;4969094;29;20545;-79
2023/07/03 03:31:24;;;;;;;13.30;4.30;;;;;;;;;;4968059;29;20584;-79
2023/07/03 03:33:52;;;;;;;9.60;3.83;;;;;;;;;;4969678;29;20469;-80
2023/07/03 03:36:20;;;;;;;8.30;4.03;;;;;;;;;;4966280;29;20872;-79
2023/07/03 03:38:47;;;;;;;7.17;3.77;;;;;;;;;;4964943;28;20497;-80
2023/07/03 03:41:17;;;;;;;7.10;3.53;;;;;;;;;;4968599;29;20473;-77
2023/07/03 03:43:44;;;;;;;10.77;3.57;;;;;;;;;;4965663;29;20485;-79
2023/07/03 03:46:11;;;;;;;9.60;4.20;;;;;;;;;;4962331;29;20567;-79
2023/07/03 03:48:39;;;;;;;6.70;2.90;;;;;;;;;;4965144;29;20461;-78
2023/07/03 03:51:07;;;;;;;9.23;3.50;;;;;;;;;;4967864;29;20784;-79
2023/07/03 03:53:34;;;;;;;10.40;4.03;;;;;;;;;;4960849;29;20458;-79
2023/07/03 03:56:02;;;;;;;6.70;3.50;;;;;;;;;;4963914;29;20466;-79
2023/07/03 03:58:31;;;;;;;8.83;4.20;;;;;;;;;;4967446;29;20458;-79
2023/07/03 04:00:59;;;;;;;9.60;4.07;;;;;;;;;;4961576;29;20466;-79
2023/07/03 04:03:27;;;;;;;9.47;3.80;;;;;;;;;;4964136;28;20750;-79
2023/07/03 04:05:54;;;;;;;16.40;4.37;;;;;;;;;;4970337;29;20446;-79
2023/07/03 04:08:22;;;;;;;10.50;3.57;;;;;;;;;;4963688;28;20501;-79
2023/07/03 04:10:49;;;;;;;9.53;3.70;;;;;;;;;;4962482;29;20547;-79
2023/07/03 04:13:16;;;;;;;9.30;3.50;;;;;;;;;;4970066;29;20478;-78
2023/07/03 04:16:03;;;;;;;9.30;3.60;;;;;;;;;;4964250;29;20465;-80
2023/07/03 04:18:31;;;;;;;9.97;3.70;;;;;;;;;;4968419;29;20457;-79
2023/07/03 04:20:59;;;;;;;10.07;4.10;;;;;;;;;;4964312;29;20767;-79
2023/07/03 04:23:26;;;;;;;6.50;3.97;;;;;;;;;;4963659;29;20489;-78
2023/07/03 04:25:54;;;;;;;10.87;4.47;;;;;;;;;;4970588;29;20473;-78
2023/07/03 04:28:22;;;;;;;12.90;3.03;;;;;;;;;;4963409;29;20462;-79
2023/07/03 04:30:50;;;;;;;16.13;4.00;;;;;;;;;;4961947;29;20698;-80
2023/07/03 04:33:19;;;;;;;13.83;4.43;;;;;;;;;;4968180;29;20473;-80
2023/07/03 04:35:47;;;;;;;8.30;3.50;;;;;;;;;;4965980;29;20540;-79
2023/07/03 04:38:17;;;;;;;14.73;4.50;;;;;;;;;;4963543;28;20563;-78
2023/07/03 04:40:45;;;;;;;12.83;7.23;;;;;;;;;;4982892;28;20493;-79
2023/07/03 04:43:15;;;;;;;14.53;4.50;;;;;;;;;;4987856;28;20532;-79
2023/07/03 04:45:45;;;;;;;11.77;3.70;;;;;;;;;;4982356;28;20463;-79
2023/07/03 04:48:12;;;;;;;8.80;3.27;;;;;;;;;;4980963;28;20457;-79
2023/07/03 04:50:41;;;;;;;12.47;4.27;;;;;;;;;;4981516;28;20461;-80
2023/07/03 04:53:09;;;;;;;10.07;3.87;;;;;;;;;;4984185;28;20468;-78
2023/07/03 04:55:38;;;;;;;9.50;3.93;;;;;;;;;;4979872;28;20779;-79
2023/07/03 04:58:05;;;;;;;7.73;3.93;;;;;;;;;;4980309;28;20511;-78
2023/07/03 05:00:33;;;;;;;11.23;4.33;;;;;;;;;;4980562;28;20459;-79
2023/07/03 05:03:03;;;;;;;8.70;3.60;;;;;;;;;;4982920;28;20551;-80
2023/07/03 05:05:31;;;;;;;10.40;3.83;;;;;;;;;;4979598;28;20479;-79
2023/07/03 05:08:00;;;;;;;19.30;10.90;;;;;;;;;;4980327;28;20465;-79
2023/07/03 05:10:28;;;;;;;8.40;4.13;;;;;;;;;;4980140;28;20781;-79
2023/07/03 05:12:56;;;;;;;11.40;3.63;;;;;;;;;;4983177;28;20488;-79
2023/07/03 05:15:24;;;;;;;12.60;5.27;;;;;;;;;;4977535;28;20475;-79
2023/07/03 05:17:54;;;;;;;8.53;3.83;;;;;;;;;;4982184;28;20725;-79
2023/07/03 05:20:23;;;;;;;14.77;4.63;;;;;;;;;;4980500;28;20461;-78
2023/07/03 05:22:51;;;;;;;18.73;4.87;;;;;;;;;;4978548;28;20480;-78
2023/07/03 05:25:20;;;;;;;13.37;4.30;;;;;;;;;;4984052;28;20445;-79
2023/07/03 05:27:48;;;;;;;13.50;4.87;;;;;;;;;;4978843;28;20461;-79
2023/07/03 05:30:17;;;;;;;11.70;4.50;;;;;;;;;;4983190;28;20616;-79
2023/07/03 05:32:44;;;;;;;10.10;4.83;;;;;;;;;;4981231;28;20528;-78
2023/07/03 05:35:13;;;;;;;10.00;4.87;;;;;;;;;;4978692;28;20597;-79
2023/07/03 05:37:40;;;;;;;8.47;3.63;;;;;;;;;;4982512;28;20433;-79
2023/07/03 05:40:09;;;;;;;9.00;3.27;;;;;;;;;;4965342;28;20528;-78
2023/07/03 05:42:38;;;;;;;7.37;3.40;;;;;;;;;;4962269;29;20449;-80
2023/07/03 05:45:06;;;;;;;10.40;3.50;;;;;;;;;;4957059;29;20552;-78
2023/07/03 05:47:35;;;;;;;10.60;3.40;;;;;;;;;;4962105;29;20466;-79
2023/07/03 05:50:08;;;;;;;11.50;4.03;;;;;;;;;;4959981;29;20524;-78
2023/07/03 05:52:36;;;;;;;11.43;3.90;;;;;;;;;;4959233;29;20462;-78
2023/07/03 05:55:04;;;;;;;11.30;4.43;;;;;;;;;;4963884;29;20458;-77
2023/07/03 05:57:34;;;;;;;7.07;3.90;;;;;;;;;;4961118;29;20663;-78
2023/07/03 06:00:13;;;;;;;11.00;3.63;;;;;;;;;;4959855;29;20461;-80
2023/07/03 06:02:42;;;;;;;12.03;4.50;;;;;;;;;;4962324;29;20576;-80
2023/07/03 06:05:10;;;;;;;12.37;3.93;;;;;;;;;;4961183;29;20488;-79
2023/07/03 06:07:37;;;;;;;8.90;3.93;;;;;;;;;;4957853;29;20450;-78
2023/07/03 06:10:10;;;;;;;12.60;4.37;;;;;;;;;;4958782;29;20556;-78
2023/07/03 06:12:38;;;;;;;10.53;4.53;;;;;;;;;;4960650;29;20553;-79
2023/07/03 06:15:08;;;;;;;11.50;4.20;;;;;;;;;;4961979;29;20453;-79
2023/07/03 06:17:38;;;;;;;8.53;4.33;;;;;;;;;;4959628;29;20472;-77
2023/07/03 06:20:10;;;;;;;11.07;4.27;;;;;;;;;;4963413;29;20464;-78
2023/07/03 06:22:38;;;;;;;12.47;4.27;;;;;;;;;;4960019;28;20458;-79
2023/07/03 06:25:09;;;;;;;14.50;5.10;;;;;;;;;;4960683;28;21025;-78
2023/07/03 06:27:41;;;;;;;11.80;4.60;;;;;;;;;;4965627;29;20515;-79
2023/07/03 06:30:23;;;;;;;12.93;4.70;;;;;;;;;;4964355;29;20517;-78
2023/07/03 06:32:52;;;;;;;11.87;3.43;;;;;;;;;;4965285;29;20458;-79
2023/07/03 06:35:20;;;;;;;11.47;3.60;;;;;;;;;;4964315;29;20462;-80
2023/07/03 06:37:48;;;;;;;11.70;4.07;;;;;;;;;;4963416;29;20518;-78
2023/07/03 06:40:20;;;;;;;13.40;5.47;;;;;;;;;;4983926;28;20655;-79
2023/07/03 06:42:47;;;;;;;10.70;3.80;;;;;;;;;;4985949;28;20456;-78
2023/07/03 06:45:18;;;;;;;9.80;3.63;;;;;;;;;;4982924;28;20484;-78
2023/07/03 06:47:49;;;;;;;17.00;4.47;;;;;;;;;;4982357;28;20520;-78
2023/07/03 06:50:17;;;;;;;11.83;3.57;;;;;;;;;;4979364;28;20863;-79
2023/07/03 06:52:49;;;;;;;7.93;3.67;;;;;;;;;;4978372;28;20468;-77
2023/07/03 06:55:32;;;;;;;7.50;2.70;;;;;;;;;;4980314;28;20542;-80
2023/07/03 06:58:02;;;;;;;11.03;3.20;;;;;;;;;;4975512;28;20785;-79
2023/07/03 07:00:35;;;;;;;11.57;2.60;;;;;;;;;;4970475;28;20465;-79
2023/07/03 07:03:03;;;;;;;9.37;2.50;;;;;;;;;;4981874;28;20501;-79
2023/07/03 07:05:32;;;;;;;10.03;2.70;;;;;;;;;;4978251;28;20914;-78
2023/07/03 07:08:00;;;;;;;7.00;2.53;;;;;;;;;;4965004;29;20489;-79
2023/07/03 07:10:31;;;;;;;7.03;2.20;;;;;;;;;;4965794;28;20505;-77
2023/07/03 07:13:02;;;;;;;7.50;2.57;;;;;;;;;;4970654;28;20556;-79
2023/07/03 07:15:30;;;;;;;9.03;2.60;;;;;;;;;;4966184;28;20454;-78
2023/07/03 07:18:01;;;;;;;9.40;3.20;;;;;;;;;;4973580;28;20444;-79
2023/07/03 07:20:32;;;;;;;9.70;3.70;;;;;;;;;;4971597;28;20490;-80
2023/07/03 07:23:01;;;;;;;8.83;2.90;;;;;;;;;;4981877;28;20575;-78
2023/07/03 07:25:35;;;;;;;12.97;3.67;;;;;;;;;;4970822;28;21007;-78
2023/07/03 07:28:06;;;;;;;7.13;3.40;;;;;;;;;;4970340;28;20450;-81
2023/07/03 07:30:41;;;;;;;11.30;3.50;;;;;;;;;;4972853;28;20450;-81
2023/07/03 07:33:12;;;;;;;10.43;3.43;;;;;;;;;;4967811;28;20450;-80
2023/07/03 07:35:45;;;;;;;10.73;3.60;;;;;;;;;;4970783;28;20450;-80
2023/07/03 07:38:18;;;;;;;6.50;2.67;;;;;;;;;;4969636;28;20561;-79
2023/07/03 07:40:52;;;;;;;13.30;4.00;;;;;;;;;;4977397;28;20479;-78
2023/07/03 07:43:22;;;;;;;8.50;3.00;;;;;;;;;;4983656;28;20467;-79
2023/07/03 07:45:53;;;;;;;14.60;4.77;;;;;;;;;;4974467;28;20465;-78
2023/07/03 07:48:22;;;;;;;13.10;4.27;;;;;;;;;;4983931;28;20496;-80
2023/07/03 07:50:51;;;;;;;8.63;3.90;;;;;;;;;;4968798;28;20465;-78
2023/07/03 07:53:19;;;;;;;12.13;4.20;;;;;;;;;;4969231;28;20855;-80
2023/07/03 07:55:47;;;;;;;13.80;3.63;;;;;;;;;;4979531;28;20949;-79
2023/07/03 07:58:15;;;;;;;10.30;6.50;;;;;;;;;;4983795;28;20983;-78
2023/07/03 08:00:43;;;;;;;12.60;4.30;;;;;;;;;;4981284;28;20469;-79
2023/07/03 08:03:11;;;;;;;9.73;3.77;;;;;;;;;;4970753;29;20453;-79
2023/07/03 08:05:40;;;;;;;9.20;3.60;;;;;;;;;;4970373;28;20523;-80
2023/07/03 08:08:08;;;;;;;9.83;3.60;;;;;;;;;;4967995;28;20476;-78
2023/07/03 08:10:40;;;;;;;11.33;3.50;;;;;;;;;;4970364;28;20641;-78
2023/07/03 08:13:11;;;;;;;13.57;3.87;;;;;;;;;;4979368;28;20840;-78
2023/07/03 08:15:39;;;;;;;9.90;3.87;;;;;;;;;;4984059;28;20894;-79
2023/07/03 08:18:07;;;;;;;7.03;2.83;;;;;;;;;;4966401;28;20544;-78
2023/07/03 08:20:35;;;;;;;6.40;2.10;;;;;;;;;;4970836;28;20469;-77
2023/07/03 08:23:05;;;;;;;16.90;2.80;;;;;;;;;;4982866;28;20528;-78
2023/07/03 08:25:32;;;;;;;7.80;2.37;;;;;;;;;;4983731;28;20481;-78
2023/07/03 08:28:04;;;;;;;10.17;2.33;;;;;;;;;;4984712;28;20525;-78
2023/07/03 08:31:00;;;;;;;8.03;2.37;;;;;;;;;;4970422;29;20453;-80
2023/07/03 08:33:28;;;;;;;6.77;2.23;;;;;;;;;;4972615;28;20457;-80
2023/07/03 08:35:56;;;;;;;16.30;2.63;;;;;;;;;;4967239;28;20564;-78
2023/07/03 08:38:28;;;;;;;10.30;2.47;;;;;;;;;;4974207;28;20469;-78
2023/07/03 08:40:58;;;;;;;7.50;2.10;;;;;;;;;;4974172;28;20532;-78
2023/07/03 08:43:31;;;;;;;9.30;3.03;;;;;;;;;;4985200;28;20444;-79
2023/07/03 08:46:18;;;;;;;7.70;2.40;;;;;;;;;;4971041;28;20496;-77
2023/07/03 08:49:28;;;;;;;5.30;1.87;;;;;;;;;;4981233;28;20573;-81
2023/07/03 08:52:00;;;;;;;6.63;1.80;;;;;;;;;;4975236;28;20450;-78
2023/07/03 08:54:33;;;;;;;11.17;2.20;;;;;;;;;;4973037;28;20464;-76
2023/07/03 08:57:07;;;;;;;9.30;2.43;;;;;;;;;;4978512;28;20453;-78
2023/07/03 08:59:35;;;;;;;9.33;2.27;;;;;;;;;;4978422;28;20516;-79
2023/07/03 09:02:11;;;;;;;6.93;2.20;;;;;;;;;;4974951;28;20462;-78
2023/07/03 09:04:45;;;;;;;6.80;2.83;;;;;;;;;;4968191;28;21069;-76
2023/07/03 09:07:20;;;;;;;8.50;2.57;;;;;;;;;;4973757;28;20546;-78
2023/07/03 09:12:45;;;;;;;9.63;2.83;;;;;;;;;;4977572;28;20945;-78
2023/07/03 09:15:16;;;;;;;6.03;2.10;;;;;;;;;;4981077;28;20457;-79
2023/07/03 09:17:47;;;;;;;7.80;1.97;;;;;;;;;;4961013;28;20493;-78
2023/07/03 09:20:24;;;;;;;7.50;2.20;;;;;;;;;;4960951;28;20540;-77
2023/07/03 09:22:57;;;;;;;8.73;2.20;;;;;;;;;;4961684;29;20533;-79
2023/07/03 09:25:30;;;;;;;6.10;2.03;;;;;;;;;;4963114;29;20489;-80
2023/07/03 09:27:58;;;;;;;7.60;3.10;;;;;;;;;;4962898;29;20446;-78
2023/07/03 09:30:30;;;;;;;6.83;2.60;;;;;;;;;;4972634;28;20500;-79
2023/07/03 09:32:58;;;;;;;8.37;3.00;;;;;;;;;;4966930;28;20472;-77
2023/07/03 09:35:34;;;;;;;9.00;2.13;;;;;;;;;;5009388;28;20514;-80
2023/07/03 09:38:12;;;;;;;11.80;2.77;;;;;;;;;;5020476;28;20459;-79
2023/07/03 09:40:43;;;;;;;7.83;1.93;;;;;;;;;;5016189;28;20455;-77
2023/07/03 09:43:18;;;;;;;8.40;2.60;;;;;;;;;;5017390;28;20475;-78
2023/07/03 09:45:46;;;;;;;5.93;1.87;;;;;;;;;;5007947;28;20497;-77
2023/07/03 09:48:19;;;;;;;10.53;2.77;;;;;;;;;;5016785;28;20459;-81
2023/07/03 09:50:52;;;;;;;5.87;1.93;;;;;;;;;;5004317;28;20466;-79
2023/07/03 09:53:22;;;;;;;9.20;3.73;;;;;;;;;;5008902;28;20455;-77
2023/07/03 09:55:54;;;;;;;9.53;2.40;;;;;;;;;;5025118;28;20479;-77
2023/07/03 09:58:25;;;;;;;8.67;2.80;;;;;;;;;;5025377;28;20455;-78
2023/07/03 10:00:54;;;;;;;6.77;2.30;;;;;;;;;;5013204;28;20584;-78
2023/07/03 10:03:26;;;;;;;5.53;2.30;;;;;;;;;;5022959;28;20511;-77
2023/07/03 10:05:56;;;;;;;5.97;2.33;;;;;;;;;;5020105;28;20487;-77
2023/07/03 10:08:26;;;;;;;8.33;2.20;;;;;;;;;;5022433;28;20829;-78
2023/07/03 10:11:04;;;;;;;8.67;2.80;;;;;;;;;;5024473;28;20454;-78
2023/07/03 10:13:39;;;;;;;9.47;2.20;;;;;;;;;;5024717;28;20473;-78
2023/07/03 10:16:13;;;;;;;7.43;3.57;;;;;;;;;;5023181;28;20454;-78
2023/07/03 10:18:58;;;;;;;10.63;3.30;;;;;;;;;;5006410;28;20464;-78
2023/07/03 10:21:28;;;;;;;8.23;2.63;;;;;;;;;;5018382;28;20486;-79
2023/07/03 10:23:56;;;;;;;11.20;3.80;;;;;;;;;;5007080;28;20471;-78
2023/07/03 10:26:38;;;;;;;8.53;2.80;;;;;;;;;;4999426;28;20484;-77
2023/07/03 10:29:10;;;;;;;8.40;3.10;;;;;;;;;;5007591;28;20468;-77
2023/07/03 10:31:40;;;;;;;13.67;2.80;;;;;;;;;;5010375;28;20606;-78
2023/07/03 10:34:10;;;;;;;7.10;2.47;;;;;;;;;;5004499;28;20471;-77
2023/07/03 10:36:39;;;;;;;8.70;2.67;;;;;;;;;;5004285;28;20459;-79
2023/07/03 10:39:11;;;;;;;14.13;3.40;;;;;;;;;;5005440;28;20441;-79
2023/07/03 10:41:51;;;;;;;11.50;2.63;;;;;;;;;;5001502;28;20448;-84
2023/07/03 10:44:23;;;;;;;8.53;2.70;;;;;;;;;;5007648;28;20518;-79
2023/07/03 10:46:57;;;;;;;10.80;3.40;;;;;;;;;;5015978;28;20884;-79
2023/07/03 10:49:28;;;;;;;7.30;2.80;;;;;;;;;;5015977;28;20464;-79
2023/07/03 10:52:05;;;;;;;8.27;2.43;;;;;;;;;;5024523;28;20466;-79
2023/07/03 10:54:37;;;;;;;6.83;2.17;;;;;;;;;;5019872;28;20476;-79
2023/07/03 10:57:17;;;;;;;8.50;2.20;;;;;;;;;;5017651;28;20465;-79
2023/07/03 10:59:54;;;;;;;11.10;3.23;;;;;;;;;;5018524;28;20459;-79
2023/07/03 11:02:30;;;;;;;7.70;1.87;;;;;;;;;;5013590;28;20460;-80
2023/07/03 11:05:07;;;;;;;8.80;2.20;;;;;;;;;;5019307;28;20502;-81
2023/07/03 11:07:40;;;;;;;8.33;2.40;;;;;;;;;;5014862;28;20527;-78
2023/07/03 11:10:34;;;;;;;13.23;2.77;;;;;;;;;;5028617;28;20450;-81
2023/07/03 11:13:14;;;;;;;7.57;2.70;;;;;;;;;;5012602;28;20444;-80
2023/07/03 11:15:52;;;;;;;9.07;2.53;;;;;;;;;;5016101;28;20459;-80
2023/07/03 11:18:30;;;;;;;10.73;2.50;;;;;;;;;;5021431;28;20463;-79
2023/07/03 11:21:05;;;;;;;7.37;2.07;;;;;;;;;;5022065;28;20494;-78
2023/07/03 11:23:37;;;;;;;12.80;2.47;;;;;;;;;;5023576;28;20477;-78
2023/07/03 11:26:14;;;;;;;8.70;1.90;;;;;;;;;;5017874;28;20511;-78
2023/07/03 11:28:46;;;;;;;6.93;2.07;;;;;;;;;;5016560;28;20732;-79
2023/07/03 11:31:17;;;;;;;9.13;3.70;;;;;;;;;;5010499;28;20564;-79
2023/07/03 11:33:46;;;;;;;8.73;2.53;;;;;;;;;;5011359;28;20471;-79
2023/07/03 11:36:29;;;;;;;11.13;2.60;;;;;;;;;;5012373;28;20467;-79
2023/07/03 11:39:18;;;;;;;10.90;3.37;;;;;;;;;;5005709;28;20526;-79
2023/07/03 11:41:51;;;;;;;8.70;2.67;;;;;;;;;;5010647;28;20583;-78
2023/07/03 11:44:33;;;;;;;8.30;2.30;;;;;;;;;;5008061;28;20456;-79
2023/07/03 11:47:08;;;;;;;12.13;2.80;;;;;;;;;;5014459;28;20487;-78
2023/07/03 11:49:38;;;;;;;7.20;2.17;;;;;;;;;;5017429;28;20534;-79
2023/07/03 11:52:22;;;;;;;13.63;3.43;;;;;;;;;;5008551;28;20444;-78
2023/07/03 11:54:59;;;;;;;9.17;3.23;;;;;;;;;;5010922;28;20475;-79
2023/07/03 11:57:50;;;;;;;12.27;3.00;;;;;;;;;;5017601;28;20455;-80
2023/07/03 12:00:31;;;;;;;7.83;3.70;;;;;;;;;;5008119;28;20750;-79
2023/07/03 12:03:00;;;;;;;9.30;2.97;;;;;;;;;;5007580;28;20459;-79
2023/07/03 12:05:46;;;;;;;10.70;3.87;;;;;;;;;;5013580;28;20492;-80
2023/07/03 12:14:37;;;;;;;13.20;3.37;;;;;;;;;;4995625;28;20447;-79
2023/07/03 12:17:18;;;;;;;8.37;3.10;;;;;;;;;;5010311;28;20493;-80
2023/07/03 12:19:46;;;;;;;10.03;3.03;;;;;;;;;;5013508;28;20494;-79
2023/07/03 12:22:15;;;;;;;6.53;3.13;;;;;;;;;;5023787;28;20467;-80
2023/07/03 12:24:44;;;;;;;9.83;3.50;;;;;;;;;;5016589;28;20562;-78
2023/07/03 12:27:14;;;;;;;10.63;3.30;;;;;;;;;;5009348;28;20451;-79
2023/07/03 12:29:47;;;;;;;7.47;2.40;;;;;;;;;;5019334;28;21004;-80
2023/07/03 12:32:24;;;;;;;7.80;2.30;;;;;;;;;;5015992;28;20470;-79
2023/07/03 12:34:54;;;;;;;7.63;3.30;;;;;;;;;;5009392;28;20478;-79
2023/07/03 12:37:26;;;;;;;9.03;3.17;;;;;;;;;;5010875;28;20480;-78
2023/07/03 12:39:57;;;;;;;7.73;2.43;;;;;;;;;;5014195;28;20463;-80
2023/07/03 12:42:28;;;;;;;6.13;2.90;;;;;;;;;;5015334;28;20459;-78
2023/07/03 12:45:23;;;;;;;9.83;2.20;;;;;;;;;;5010533;28;20522;-81
2023/07/03 12:48:09;;;;;;;10.67;2.40;;;;;;;;;;5008941;28;20459;-82
2023/07/03 12:50:48;;;;;;;3.87;1.60;;;;;;;;;;5007191;28;20776;-80
2023/07/03 12:53:23;;;;;;;5.70;1.67;;;;;;;;;;5010593;28;20456;-80
2023/07/03 12:55:54;;;;;;;5.60;1.70;;;;;;;;;;5015010;28;20459;-80
2023/07/03 12:58:31;;;;;;;4.90;1.50;;;;;;;;;;5005787;28;20529;-80
2023/07/03 13:01:11;;;;;;;6.73;2.37;;;;;;;;;;5009853;28;20534;-78
2023/07/03 13:03:47;;;;;;;5.30;1.57;;;;;;;;;;5010658;28;20458;-82
2023/07/03 13:06:19;;;;;;;7.30;1.80;;;;;;;;;;5015506;28;20502;-78
2023/07/03 13:08:48;;;;;;;8.80;3.03;;;;;;;;;;5015027;28;20558;-79
2023/07/03 13:11:31;;;;;;;;;;;;;;;;;;;;;
2023/07/03 13:37:14;;;;;;;5.77;1.50;;;;;;;;;;6006022;22;4577256;-74
2023/07/03 13:46:01;;;;;;;8.60;3.77;;;;;;;;;;6172929;23;20421;-79
2023/07/03 13:48:29;;;;;;;14.13;2.47;;;;;;;;;;6174868;23;20418;-80
2023/07/03 13:50:58;;;;;;;5.23;2.00;;;;;;;;;;6177269;23;20411;-79
2023/07/03 13:53:35;;;;;;;6.90;3.50;;;;;;;;;;6171844;23;20411;-81
2023/07/03 13:56:06;;;;;;;6.47;1.80;;;;;;;;;;6174609;23;20437;-81
2023/07/03 13:58:33;;;;;;;8.63;2.50;;;;;;;;;;6176192;23;20419;-78
2023/07/03 14:01:10;;;;;;;18.53;2.03;;;;;;;;;;6173663;23;20384;-80
2023/07/03 14:03:39;;;;;;;6.00;1.97;;;;;;;;;;6173165;23;20517;-78
2023/07/03 14:06:09;;;;;;;7.50;1.77;;;;;;;;;;6172864;23;20411;-78
2023/07/03 14:08:42;;;;;;;5.00;2.37;;;;;;;;;;6169851;23;20431;-79
2023/07/03 14:11:12;;;;;;;5.00;2.10;;;;;;;;;;6169961;23;20794;-80
2023/07/03 14:13:43;;;;;;;6.17;1.80;;;;;;;;;;6170155;23;20414;-79
2023/07/03 14:16:12;;;;;;;5.20;2.07;;;;;;;;;;6171960;23;20392;-79
2023/07/03 14:18:42;;;;;;;3.63;1.47;;;;;;;;;;6176264;23;20399;-78
2023/07/03 14:21:11;;;;;;;10.33;2.60;;;;;;;;;;6172854;23;20423;-79
2023/07/03 14:23:48;;;;;;;6.53;2.40;;;;;;;;;;6173202;23;20447;-79
2023/07/03 14:26:17;;;;;;;5.30;1.60;;;;;;;;;;6171935;23;20450;-79
2023/07/03 14:28:45;;;;;;;7.00;2.17;;;;;;;;;;6169778;23;20450;-80
2023/07/03 14:31:14;;;;;;;8.23;1.77;;;;;;;;;;6171345;23;20526;-77
2023/07/03 14:33:42;;;;;;;8.27;2.10;;;;;;;;;;6172340;23;20419;-81
2023/07/03 14:36:11;;;;;;;8.80;2.50;;;;;;;;;;6166919;23;20692;-81
2023/07/03 14:38:40;;;;;;;5.90;1.40;;;;;;;;;;6168219;23;20443;-79
2023/07/03 14:41:13;;;;;;;10.17;4.20;;;;;;;;;;6167703;23;20380;-78
2023/07/03 14:43:43;;;;;;;6.50;2.07;;;;;;;;;;6167109;23;20439;-78
2023/07/03 14:46:14;;;;;;;10.30;2.53;;;;;;;;;;6165043;23;20444;-79
2023/07/03 14:48:41;;;;;;;8.17;3.03;;;;;;;;;;6166906;23;20420;-79
2023/07/03 14:51:09;;;;;;;5.97;1.40;;;;;;;;;;6166602;23;20435;-81
2023/07/03 14:53:43;;;;;;;6.90;3.20;;;;;;;;;;6168606;23;20681;-78
2023/07/03 14:56:25;;;;;;;9.37;2.50;;;;;;;;;;6168983;23;20387;-79
2023/07/03 14:58:55;;;;;;;6.73;1.73;;;;;;;;;;6170895;23;20388;-82
2023/07/03 15:01:27;;;;;;;7.13;2.27;;;;;;;;;;6172432;23;20418;-80
2023/07/03 15:03:55;;;;;;;9.70;2.60;;;;;;;;;;6170591;23;20443;-80
2023/07/03 15:06:22;;;;;;;5.43;1.93;;;;;;;;;;6171952;23;20403;-81
2023/07/03 15:08:49;;;;;;;5.13;1.77;;;;;;;;;;6169173;23;20400;-79
2023/07/03 15:11:18;;;;;;;5.97;2.17;;;;;;;;;;6163764;23;20400;-79
2023/07/03 15:13:46;;;;;;;5.40;2.23;;;;;;;;;;6165481;23;20391;-78
2023/07/03 15:16:14;;;;;;;8.50;2.30;;;;;;;;;;6164494;23;20412;-78
2023/07/03 15:18:42;;;;;;;10.67;2.50;;;;;;;;;;6168491;23;20446;-78
2023/07/03 15:21:09;;;;;;;10.53;4.13;;;;;;;;;;6169983;23;20535;-80
2023/07/03 15:23:37;;;;;;;9.13;2.00;;;;;;;;;;6166184;23;20503;-78
2023/07/03 15:26:06;;;;;;;5.80;2.03;;;;;;;;;;6165317;23;20399;-78
2023/07/03 15:28:34;;;;;;;6.40;2.43;;;;;;;;;;6163966;23;20400;-79
2023/07/03 15:31:03;;;;;;;9.00;2.30;;;;;;;;;;6166801;23;20416;-80
2023/07/03 15:33:32;;;;;;;9.27;1.90;;;;;;;;;;6166838;23;20436;-78
2023/07/03 15:36:00;;;;;;;9.00;3.30;;;;;;;;;;6164773;23;20408;-79
2023/07/03 15:38:28;;;;;;;7.23;3.30;;;;;;;;;;6164418;23;21030;-80